createdAt,value
2022-08-19T00:00:37.999Z,10.39999962
2022-08-19T00:01:38.502Z,10.5
2022-08-19T00:02:38.963Z,11.80000019
2022-08-19T00:03:39.347Z,12.39999962
2022-08-19T00:04:39.798Z,11.69999981
2022-08-19T00:05:40.236Z,10.39999962
2022-08-19T00:06:40.690Z,10.89999962
2022-08-19T00:07:41.120Z,11.60000038
2022-08-19T00:08:42.932Z,10.69999981
2022-08-19T00:09:43.055Z,9.600000381
2022-08-19T00:10:43.572Z,10.80000019
2022-08-19T00:11:44.030Z,10.10000038
2022-08-19T00:12:47.122Z,11.19999981
2022-08-19T00:13:45.290Z,10.60000038
2022-08-19T00:14:45.471Z,13
2022-08-19T00:15:46.002Z,11
2022-08-19T00:16:46.495Z,11.60000038
2022-08-19T00:17:47.011Z,12.30000019
2022-08-19T00:18:47.415Z,10.69999981
2022-08-19T00:19:48.604Z,11.69999981
2022-08-19T00:20:49.121Z,10.89999962
2022-08-19T00:22:20.563Z,11.10000038
2022-08-19T00:23:21.182Z,11.39999962
2022-08-19T00:24:21.689Z,12.10000038
2022-08-19T00:25:29.869Z,12
2022-08-19T00:26:22.747Z,12.10000038
2022-08-19T00:27:26.312Z,11.19999981
2022-08-19T00:28:23.765Z,11.5
2022-08-19T00:29:24.163Z,11.89999962
2022-08-19T00:30:25.350Z,11.19999981
2022-08-19T00:31:25.871Z,11
2022-08-19T00:32:26.379Z,11.69999981
2022-08-19T00:33:27.814Z,10.89999962
2022-08-19T00:34:28.201Z,10.60000038
2022-08-19T00:35:28.779Z,10.19999981
2022-08-19T00:36:29.469Z,11.30000019
2022-08-19T00:37:30.010Z,11.30000019
2022-08-19T00:38:36.789Z,11
2022-08-19T00:39:30.934Z,10.89999962
2022-08-19T00:40:32.356Z,12.30000019
2022-08-19T00:41:32.857Z,11.69999981
2022-08-19T00:42:33.355Z,10.89999962
2022-08-19T00:43:33.822Z,11.30000019
2022-08-19T00:44:34.773Z,10.69999981
2022-08-19T00:45:36.507Z,11.5
2022-08-19T00:46:35.730Z,10.89999962
2022-08-19T00:47:36.184Z,11.5
2022-08-19T00:48:36.676Z,12.19999981
2022-08-19T00:49:37.067Z,11.30000019
2022-08-19T00:50:38.395Z,10.60000038
2022-08-19T00:51:38.862Z,10.89999962
2022-08-19T00:52:39.324Z,10.80000019
2022-08-19T00:53:39.797Z,10.89999962
2022-08-19T00:54:40.189Z,10.19999981
2022-08-19T00:55:40.688Z,10.5
2022-08-19T00:56:41.678Z,10.39999962
2022-08-19T00:57:42.272Z,11.10000038
2022-08-19T00:58:42.719Z,10.30000019
2022-08-19T00:59:58.798Z,10.19999981
2022-08-19T01:00:44.350Z,9.800000191
2022-08-19T01:01:44.890Z,9.800000191
2022-08-19T01:02:45.251Z,9.199999809
2022-08-19T01:03:57.985Z,9.199999809
2022-08-19T01:04:46.771Z,9.899999619
2022-08-19T01:05:47.304Z,9.300000191
2022-08-19T01:06:47.748Z,9.5
2022-08-19T01:07:48.223Z,8.899999619
2022-08-19T01:08:50.307Z,9.800000191
2022-08-19T01:10:20.560Z,8.800000191
2022-08-19T01:11:21.064Z,8.899999619
2022-08-19T01:12:21.508Z,10.5
2022-08-19T01:13:21.975Z,9.399999619
2022-08-19T01:14:22.424Z,8.899999619
2022-08-19T01:15:22.817Z,8.399999619
2022-08-19T01:16:23.295Z,8.399999619
2022-08-19T01:17:23.745Z,9.800000191
2022-08-19T01:18:24.234Z,10
2022-08-19T01:19:25.589Z,9.899999619
2022-08-19T01:20:26.567Z,9.800000191
2022-08-19T01:21:27.194Z,9.600000381
2022-08-19T01:22:33.320Z,10.30000019
2022-08-19T01:23:28.902Z,8.899999619
2022-08-19T01:24:29.359Z,9.600000381
2022-08-19T01:25:29.734Z,8.399999619
2022-08-19T01:26:31.369Z,8.800000191
2022-08-19T01:27:35.400Z,10.10000038
2022-08-19T01:28:34.196Z,9.100000381
2022-08-19T01:29:31.880Z,8.899999619
2022-08-19T01:30:32.862Z,8.5
2022-08-19T01:31:33.542Z,9
2022-08-19T01:32:34.258Z,8.100000381
2022-08-19T01:33:34.334Z,10.19999981
2022-08-19T01:34:34.802Z,8.5
2022-08-19T01:35:35.208Z,9.100000381
2022-08-19T01:36:35.687Z,8.5
2022-08-19T01:37:36.218Z,8.600000381
2022-08-19T01:38:36.745Z,9
2022-08-19T01:39:37.267Z,8.100000381
2022-08-19T01:40:38.272Z,11.19999981
2022-08-19T01:41:38.795Z,9.199999809
2022-08-19T01:42:39.309Z,9.300000191
2022-08-19T01:44:13.447Z,9
2022-08-19T01:44:40.378Z,9.100000381
2022-08-19T01:45:40.933Z,8.699999809
2022-08-19T01:46:41.564Z,9
2022-08-19T01:47:42.896Z,8.899999619
2022-08-19T01:48:43.395Z,8.100000381
2022-08-19T01:49:43.915Z,9.600000381
2022-08-19T01:50:45.257Z,9.399999619
2022-08-19T01:51:45.672Z,8.699999809
2022-08-19T01:52:46.914Z,9
2022-08-19T01:53:47.187Z,9.800000191
2022-08-19T01:54:47.628Z,9.100000381
2022-08-19T01:55:48.484Z,8.600000381
2022-08-19T01:57:19.126Z,9.199999809
2022-08-19T01:58:19.545Z,9.399999619
2022-08-19T01:59:19.987Z,11
2022-08-19T02:00:21.105Z,9.800000191
2022-08-19T02:01:21.584Z,9.300000191
2022-08-19T02:02:21.899Z,9.199999809
2022-08-19T02:03:22.285Z,8.899999619
2022-08-19T02:04:22.682Z,8.899999619
2022-08-19T02:05:23.145Z,9.100000381
2022-08-19T02:06:26.905Z,9.100000381
2022-08-19T02:07:23.938Z,8.600000381
2022-08-19T02:08:24.339Z,9.100000381
2022-08-19T02:09:24.745Z,9.300000191
2022-08-19T02:10:26.096Z,9
2022-08-19T02:11:26.529Z,10.69999981
2022-08-19T02:12:26.940Z,9.100000381
2022-08-19T02:13:27.348Z,9.100000381
2022-08-19T02:14:27.771Z,9.300000191
2022-08-19T02:15:29.103Z,9.5
2022-08-19T02:16:29.531Z,9.5
2022-08-19T02:17:29.936Z,9.5
2022-08-19T02:18:30.370Z,9.600000381
2022-08-19T02:19:30.797Z,10.10000038
2022-08-19T02:20:32.094Z,10
2022-08-19T02:21:32.570Z,10.30000019
2022-08-19T02:22:33.001Z,14
2022-08-19T02:23:33.447Z,11.19999981
2022-08-19T02:24:33.862Z,11
2022-08-19T02:25:34.317Z,10.80000019
2022-08-19T02:26:34.704Z,10.89999962
2022-08-19T02:27:35.779Z,12
2022-08-19T02:28:36.186Z,10.60000038
2022-08-19T02:29:36.576Z,10.19999981
2022-08-19T02:30:37.609Z,11
2022-08-19T02:31:37.966Z,11.69999981
2022-08-19T02:32:44.473Z,11.80000019
2022-08-19T02:33:38.817Z,11.80000019
2022-08-19T02:34:39.234Z,11.19999981
2022-08-19T02:35:39.686Z,11.19999981
2022-08-19T02:36:42.413Z,12
2022-08-19T02:37:41.263Z,11.30000019
2022-08-19T02:38:41.781Z,11.60000038
2022-08-19T02:39:42.223Z,11.89999962
2022-08-19T02:40:42.633Z,11.80000019
2022-08-19T02:41:43.777Z,12
2022-08-19T02:42:44.203Z,11.10000038
2022-08-19T02:43:59.445Z,12.5
2022-08-19T02:44:45.074Z,11.69999981
2022-08-19T02:45:45.512Z,12.69999981
2022-08-19T02:46:46.012Z,12.89999962
2022-08-19T02:47:46.355Z,15.60000038
2022-08-19T02:48:46.755Z,13.10000038
2022-08-19T02:49:47.154Z,12.69999981
2022-08-19T02:51:18.810Z,13.89999962
2022-08-19T02:52:19.173Z,13.80000019
2022-08-19T02:53:19.580Z,14
2022-08-19T02:54:19.980Z,13.80000019
2022-08-19T02:55:20.412Z,13.5
2022-08-19T02:56:20.851Z,14.69999981
2022-08-19T02:57:22.083Z,13.69999981
2022-08-19T02:58:22.530Z,13.19999981
2022-08-19T02:59:23.140Z,13.39999962
2022-08-19T03:00:23.345Z,12.30000019
2022-08-19T03:01:24.412Z,13
2022-08-19T03:02:24.719Z,12.69999981
2022-08-19T03:03:25.199Z,14.39999962
2022-08-19T03:04:25.611Z,13.5
2022-08-19T03:05:48.170Z,13.69999981
2022-08-19T03:06:26.468Z,13.80000019
2022-08-19T03:07:26.848Z,12.80000019
2022-08-19T03:08:27.263Z,13
2022-08-19T03:09:27.719Z,13
2022-08-19T03:10:28.120Z,13.80000019
2022-08-19T03:11:29.287Z,12.80000019
2022-08-19T03:12:29.711Z,14
2022-08-19T03:13:30.124Z,13.39999962
2022-08-19T03:14:30.522Z,13.60000038
2022-08-19T03:15:30.974Z,15.30000019
2022-08-19T03:16:33.230Z,12.80000019
2022-08-19T03:17:31.803Z,13.30000019
2022-08-19T03:18:32.209Z,12.39999962
2022-08-19T03:19:32.616Z,13.60000038
2022-08-19T03:20:33.617Z,11.89999962
2022-08-19T03:21:34.088Z,12.60000038
2022-08-19T03:22:35.275Z,12.89999962
2022-08-19T03:23:35.689Z,13.60000038
2022-08-19T03:24:36.087Z,13
2022-08-19T03:25:36.505Z,12.60000038
2022-08-19T03:26:36.990Z,12.30000019
2022-08-19T03:27:37.397Z,12.39999962
2022-08-19T03:28:37.832Z,13.10000038
2022-08-19T03:29:43.974Z,13.39999962
2022-08-19T03:30:38.647Z,12.30000019
2022-08-19T03:31:45.709Z,14.5
2022-08-19T03:32:45.263Z,13.10000038
2022-08-19T03:33:40.609Z,12.19999981
2022-08-19T03:34:41.006Z,13.89999962
2022-08-19T03:35:41.706Z,12.39999962
2022-08-19T03:36:42.148Z,13.39999962
2022-08-19T03:37:42.515Z,12.39999962
2022-08-19T03:38:42.923Z,12
2022-08-19T03:39:43.443Z,13.69999981
2022-08-19T03:40:43.779Z,14
2022-08-19T03:41:46.299Z,11.89999962
2022-08-19T03:42:48.855Z,11.89999962
2022-08-19T03:43:45.586Z,12.69999981
2022-08-19T03:44:46.033Z,12.89999962
2022-08-19T03:45:46.418Z,11.60000038
2022-08-19T03:47:17.560Z,12.89999962
2022-08-19T03:48:17.839Z,13.10000038
2022-08-19T03:49:18.708Z,13.30000019
2022-08-19T03:50:19.590Z,12.30000019
2022-08-19T03:51:20.590Z,12.69999981
2022-08-19T03:52:21.005Z,14.30000019
2022-08-19T03:53:21.386Z,13
2022-08-19T03:54:21.779Z,12.89999962
2022-08-19T03:55:22.195Z,13
2022-08-19T03:56:23.476Z,12.69999981
2022-08-19T03:57:31.657Z,12.30000019
2022-08-19T03:58:24.146Z,12.39999962
2022-08-19T03:59:24.594Z,12.5
2022-08-19T04:00:25.003Z,12.10000038
2022-08-19T04:01:35.181Z,11.39999962
2022-08-19T04:02:26.534Z,11.19999981
2022-08-19T04:03:26.742Z,12
2022-08-19T04:04:29.027Z,11.39999962
2022-08-19T04:05:27.612Z,12.69999981
2022-08-19T04:06:28.011Z,10.39999962
2022-08-19T04:07:28.453Z,12.10000038
2022-08-19T04:08:28.854Z,11.89999962
2022-08-19T04:09:29.260Z,11.39999962
2022-08-19T04:10:29.666Z,10.69999981
2022-08-19T04:11:42.761Z,11.10000038
2022-08-19T04:12:30.466Z,11.80000019
2022-08-19T04:13:30.873Z,11.69999981
2022-08-19T04:14:31.602Z,11.10000038
2022-08-19T04:15:31.754Z,12.39999962
2022-08-19T04:16:35.316Z,11.60000038
2022-08-19T04:17:33.457Z,10.80000019
2022-08-19T04:18:36.357Z,11.39999962
2022-08-19T04:19:34.140Z,11
2022-08-19T04:20:34.546Z,11.10000038
2022-08-19T04:21:34.963Z,10.89999962
2022-08-19T04:22:35.440Z,10.69999981
2022-08-19T04:23:35.818Z,11.30000019
2022-08-19T04:24:36.248Z,11.10000038
2022-08-19T04:25:36.637Z,10.60000038
2022-08-19T04:26:37.069Z,10.30000019
2022-08-19T04:27:37.526Z,11.10000038
2022-08-19T04:28:37.911Z,10.60000038
2022-08-19T04:29:38.354Z,10.60000038
2022-08-19T04:30:38.749Z,11.10000038
2022-08-19T04:31:39.793Z,10.5
2022-08-19T04:32:40.235Z,11
2022-08-19T04:33:40.611Z,13.39999962
2022-08-19T04:35:02.040Z,10.80000019
2022-08-19T04:35:42.599Z,10.10000038
2022-08-19T04:36:43.024Z,10.5
2022-08-19T04:37:43.471Z,12.80000019
2022-08-19T04:38:43.862Z,12.60000038
2022-08-19T04:39:44.351Z,10.19999981
2022-08-19T04:40:44.721Z,11.39999962
2022-08-19T04:41:45.797Z,10
2022-08-19T04:43:16.794Z,10.39999962
2022-08-19T04:44:17.178Z,10
2022-08-19T04:45:17.661Z,9.800000191
2022-08-19T04:46:39.314Z,9.699999809
2022-08-19T04:47:18.445Z,9.899999619
2022-08-19T04:48:19.786Z,9.699999809
2022-08-19T04:49:19.253Z,9.600000381
2022-08-19T04:50:19.662Z,10.69999981
2022-08-19T04:51:20.062Z,8.899999619
2022-08-19T04:52:20.468Z,8.899999619
2022-08-19T04:53:20.928Z,9.199999809
2022-08-19T04:54:36.987Z,9
2022-08-19T04:55:21.682Z,7.900000095
2022-08-19T04:56:22.140Z,8.199999809
2022-08-19T04:57:22.543Z,8.300000191
2022-08-19T04:58:22.976Z,8.800000191
2022-08-19T04:59:23.357Z,8.300000191
2022-08-19T05:00:23.763Z,8.300000191
2022-08-19T05:01:25.157Z,8
2022-08-19T05:02:25.522Z,7.599999905
2022-08-19T05:03:30.046Z,8.5
2022-08-19T05:04:26.344Z,9.899999619
2022-08-19T05:05:26.757Z,9.5
2022-08-19T05:06:27.247Z,8.5
2022-08-19T05:07:27.636Z,9.300000191
2022-08-19T05:08:31.253Z,8.5
2022-08-19T05:09:28.440Z,8.699999809
2022-08-19T05:10:29.616Z,8.800000191
2022-08-19T05:11:30.603Z,9.199999809
2022-08-19T05:12:31.007Z,8.699999809
2022-08-19T05:13:31.621Z,9.5
2022-08-19T05:14:32.120Z,8.899999619
2022-08-19T05:15:32.612Z,8.100000381
2022-08-19T05:16:33.018Z,9.199999809
2022-08-19T05:17:37.789Z,9
2022-08-19T05:18:33.948Z,10
2022-08-19T05:19:34.383Z,9.300000191
2022-08-19T05:20:34.861Z,9.300000191
2022-08-19T05:21:36.103Z,11.5
2022-08-19T05:22:36.555Z,9.5
2022-08-19T05:23:37.025Z,10
2022-08-19T05:24:51.220Z,10.69999981
2022-08-19T05:25:38.012Z,10.5
2022-08-19T05:26:38.487Z,10.69999981
2022-08-19T05:27:38.898Z,10.80000019
2022-08-19T05:28:39.445Z,11.30000019
2022-08-19T05:29:39.917Z,10.60000038
2022-08-19T05:30:47.325Z,10.80000019
2022-08-19T05:31:41.900Z,11.10000038
2022-08-19T05:32:42.020Z,11
2022-08-19T05:33:42.625Z,10.69999981
2022-08-19T05:34:43.078Z,11.89999962
2022-08-19T05:35:44.157Z,11.89999962
2022-08-19T05:36:44.646Z,12.19999981
2022-08-19T05:37:45.067Z,9.600000381
2022-08-19T05:39:16.159Z,11.19999981
2022-08-19T05:40:16.760Z,10
2022-08-19T05:41:17.246Z,10.89999962
2022-08-19T05:42:18.312Z,10.19999981
2022-08-19T05:43:18.732Z,9.800000191
2022-08-19T05:44:19.314Z,10.30000019
2022-08-19T05:45:19.728Z,11.10000038
2022-08-19T05:46:27.642Z,10.89999962
2022-08-19T05:47:20.940Z,10.19999981
2022-08-19T05:48:21.091Z,9.899999619
2022-08-19T05:49:21.615Z,10.19999981
2022-08-19T05:50:22.654Z,11.10000038
2022-08-19T05:51:27.260Z,10.30000019
2022-08-19T05:52:25.717Z,10.19999981
2022-08-19T05:53:24.733Z,11
2022-08-19T05:54:25.203Z,13.30000019
2022-08-19T05:55:25.672Z,12.10000038
2022-08-19T05:56:26.894Z,10.30000019
2022-08-19T05:57:27.316Z,11.39999962
2022-08-19T05:58:28.086Z,10.69999981
2022-08-19T05:59:28.237Z,10.60000038
2022-08-19T06:00:28.730Z,10.30000019
2022-08-19T06:01:29.203Z,11.5
2022-08-19T06:02:30.402Z,10.5
2022-08-19T06:03:30.787Z,10.19999981
2022-08-19T06:04:31.222Z,10.80000019
2022-08-19T06:05:31.738Z,10.89999962
2022-08-19T06:06:32.224Z,12
2022-08-19T06:07:32.771Z,10.60000038
2022-08-19T06:08:33.844Z,12
2022-08-19T06:09:33.539Z,9.300000191
2022-08-19T06:10:33.980Z,10.10000038
2022-08-19T06:11:34.455Z,10.80000019
2022-08-19T06:12:35.883Z,10.80000019
2022-08-19T06:13:36.297Z,10
2022-08-19T06:14:40.245Z,10.60000038
2022-08-19T06:15:37.200Z,11.30000019
2022-08-19T06:16:37.734Z,11.10000038
2022-08-19T06:17:38.201Z,10.89999962
2022-08-19T06:18:38.602Z,10.30000019
2022-08-19T06:19:40.893Z,10.69999981
2022-08-19T06:20:55.004Z,11.10000038
2022-08-19T06:21:40.644Z,10.80000019
2022-08-19T06:22:41.917Z,11.5
2022-08-19T06:23:42.349Z,10.69999981
2022-08-19T06:24:42.795Z,11.30000019
2022-08-19T06:25:43.905Z,11.19999981
2022-08-19T06:28:11.592Z,10.5
2022-08-19T06:29:23.758Z,10.30000019
2022-08-19T06:30:16.433Z,9.5
2022-08-19T06:31:16.921Z,11.39999962
2022-08-19T06:32:18.155Z,13.80000019
2022-08-19T06:33:18.713Z,10.89999962
2022-08-19T06:34:19.746Z,9.800000191
2022-08-19T06:35:19.462Z,9.699999809
2022-08-19T06:36:19.996Z,9
2022-08-19T06:37:20.533Z,9.600000381
2022-08-19T06:38:20.980Z,9.699999809
2022-08-19T06:39:21.406Z,9.199999809
2022-08-19T06:40:21.899Z,9.300000191
2022-08-19T06:41:22.295Z,9.199999809
2022-08-19T06:42:29.740Z,8.399999619
2022-08-19T06:43:30.180Z,8.300000191
2022-08-19T06:44:30.614Z,9.5
2022-08-19T06:45:35.734Z,8.5
2022-08-19T06:46:33.585Z,8.399999619
2022-08-19T06:47:32.946Z,11.5
2022-08-19T06:48:35.568Z,11.69999981
2022-08-19T06:49:34.179Z,8.699999809
2022-08-19T06:50:35.169Z,7.900000095
2022-08-19T06:51:35.675Z,10.60000038
2022-08-19T06:52:38.359Z,9.300000191
2022-08-19T06:53:37.444Z,9
2022-08-19T06:54:56.590Z,9.199999809
2022-08-19T06:55:38.866Z,10.80000019
2022-08-19T06:56:39.338Z,10
2022-08-19T06:57:39.841Z,8.600000381
2022-08-19T06:58:40.347Z,8.300000191
2022-08-19T06:59:40.790Z,9.800000191
2022-08-19T07:00:41.238Z,11.60000038
2022-08-19T07:01:41.824Z,10.30000019
2022-08-19T07:02:48.055Z,9.899999619
2022-08-19T07:03:43.458Z,10.19999981
2022-08-19T07:04:43.887Z,10.5
2022-08-19T07:05:45.447Z,7.900000095
2022-08-19T07:07:19.729Z,8.100000381
2022-08-19T07:08:15.803Z,10
2022-08-19T07:09:18.411Z,7.199999809
2022-08-19T07:10:16.779Z,9.699999809
2022-08-19T07:11:17.240Z,10.19999981
2022-08-19T07:12:18.255Z,7.900000095
2022-08-19T07:13:18.792Z,7.099999905
2022-08-19T07:14:19.909Z,7.5
2022-08-19T07:15:19.694Z,7.800000191
2022-08-19T07:16:20.136Z,6.900000095
2022-08-19T07:17:20.593Z,6.300000191
2022-08-19T07:18:21.125Z,9.399999619
2022-08-19T07:19:21.618Z,6.5
2022-08-19T07:20:22.636Z,6.300000191
2022-08-19T07:21:23.084Z,6
2022-08-19T07:22:24.635Z,6.099999905
2022-08-19T07:23:24.773Z,6.900000095
2022-08-19T07:24:25.245Z,6.199999809
2022-08-19T07:25:32.364Z,6
2022-08-19T07:26:28.283Z,6
2022-08-19T07:27:28.124Z,6
2022-08-19T07:28:28.598Z,6.5
2022-08-19T07:29:29.103Z,5.699999809
2022-08-19T07:30:29.531Z,5.400000095
2022-08-19T07:31:31.083Z,8.399999619
2022-08-19T07:32:31.223Z,7.099999905
2022-08-19T07:33:31.794Z,10.60000038
2022-08-19T07:34:32.336Z,7.099999905
2022-08-19T07:35:32.756Z,7.5
2022-08-19T07:36:33.222Z,6.5
2022-08-19T07:37:33.670Z,6.400000095
2022-08-19T07:38:34.243Z,6.5
2022-08-19T07:39:34.810Z,5.599999905
2022-08-19T07:40:35.263Z,8.5
2022-08-19T07:41:35.722Z,7.400000095
2022-08-19T07:42:36.638Z,6.900000095
2022-08-19T07:43:37.237Z,5.800000191
2022-08-19T07:45:38.286Z,6.699999809
2022-08-19T07:46:38.724Z,6.199999809
2022-08-19T07:47:47.989Z,6.300000191
2022-08-19T07:48:39.713Z,6.699999809
2022-08-19T07:49:40.253Z,6.5
2022-08-19T07:50:41.638Z,6.5
2022-08-19T07:51:42.061Z,6.599999905
2022-08-19T07:52:43.198Z,6.300000191
2022-08-19T07:53:43.777Z,5.099999905
2022-08-19T07:55:41.708Z,5.099999905
2022-08-19T07:56:15.869Z,5.800000191
2022-08-19T07:57:16.381Z,5.300000191
2022-08-19T07:58:16.758Z,5.400000095
2022-08-19T07:59:17.302Z,6
2022-08-19T08:00:21.689Z,6.900000095
2022-08-19T08:01:18.291Z,5.699999809
2022-08-19T08:02:19.647Z,8
2022-08-19T08:03:20.063Z,6
2022-08-19T08:04:21.208Z,6.800000191
2022-08-19T08:05:21.809Z,6.199999809
2022-08-19T08:06:22.276Z,6.699999809
2022-08-19T08:07:22.757Z,7
2022-08-19T08:08:23.242Z,5.599999905
2022-08-19T08:09:23.779Z,6.5
2022-08-19T08:10:24.656Z,5.800000191
2022-08-19T08:11:25.454Z,5.300000191
2022-08-19T08:12:34.572Z,5.199999809
2022-08-19T08:13:27.171Z,5.5
2022-08-19T08:14:29.365Z,6
2022-08-19T08:15:28.205Z,6.5
2022-08-19T08:16:28.736Z,5.800000191
2022-08-19T08:17:40.689Z,6
2022-08-19T08:18:30.426Z,6.099999905
2022-08-19T08:19:30.231Z,6.199999809
2022-08-19T08:20:31.683Z,4.900000095
2022-08-19T08:21:32.150Z,5.199999809
2022-08-19T08:22:33.193Z,6.5
2022-08-19T08:23:33.593Z,5.099999905
2022-08-19T08:24:34.157Z,5.400000095
2022-08-19T08:25:35.353Z,5
2022-08-19T08:26:35.851Z,8.699999809
2022-08-19T08:27:36.314Z,5.199999809
2022-08-19T08:28:36.698Z,7.699999809
2022-08-19T08:29:37.235Z,6.199999809
2022-08-19T08:30:37.711Z,5.699999809
2022-08-19T08:31:38.242Z,5.300000191
2022-08-19T08:32:39.671Z,5
2022-08-19T08:33:40.046Z,7.900000095
2022-08-19T08:34:40.569Z,9.699999809
2022-08-19T08:35:41.099Z,6.400000095
2022-08-19T08:36:41.790Z,6.099999905
2022-08-19T08:37:42.247Z,5.900000095
2022-08-19T08:38:42.706Z,5.900000095
2022-08-19T08:39:43.294Z,5.099999905
2022-08-19T08:41:14.235Z,7
2022-08-19T08:42:17.873Z,6.400000095
2022-08-19T08:43:15.898Z,5.699999809
2022-08-19T08:44:17.320Z,5.599999905
2022-08-19T08:45:17.007Z,6.099999905
2022-08-19T08:46:31.645Z,5.300000191
2022-08-19T08:47:17.801Z,5.599999905
2022-08-19T08:48:22.053Z,4.900000095
2022-08-19T08:49:19.561Z,7.900000095
2022-08-19T08:50:20.503Z,8.399999619
2022-08-19T08:51:20.706Z,7
2022-08-19T08:52:21.860Z,5.300000191
2022-08-19T08:53:29.756Z,6.5
2022-08-19T08:54:23.358Z,8
2022-08-19T08:55:23.831Z,5.900000095
2022-08-19T08:56:24.972Z,5.5
2022-08-19T08:57:25.429Z,5.5
2022-08-19T08:58:26.105Z,5.699999809
2022-08-19T08:59:26.567Z,5.099999905
2022-08-19T09:00:27.106Z,5.300000191
2022-08-19T09:01:30.393Z,5.699999809
2022-08-19T09:02:28.036Z,6
2022-08-19T09:03:31.607Z,5.400000095
2022-08-19T09:04:29.874Z,5.599999905
2022-08-19T09:05:39.534Z,5.599999905
2022-08-19T09:06:31.433Z,5.800000191
2022-08-19T09:07:34.826Z,5.199999809
2022-08-19T09:08:32.392Z,5.099999905
2022-08-19T09:09:32.862Z,6
2022-08-19T09:10:33.306Z,6.599999905
2022-08-19T09:11:42.086Z,7.5
2022-08-19T09:12:34.157Z,5.5
2022-08-19T09:13:37.558Z,5.599999905
2022-08-19T09:14:50.163Z,5.300000191
2022-08-19T09:15:36.875Z,4.800000191
2022-08-19T09:16:36.835Z,5.400000095
2022-08-19T09:17:37.856Z,5
2022-08-19T09:18:38.315Z,6
2022-08-19T09:19:38.755Z,5.199999809
2022-08-19T09:20:41.310Z,6.099999905
2022-08-19T09:21:39.654Z,4.5
2022-08-19T09:22:40.095Z,5.199999809
2022-08-19T09:23:41.679Z,4.400000095
2022-08-19T09:24:42.122Z,5.199999809
2022-08-19T09:25:42.623Z,5.5
2022-08-19T09:27:18.760Z,6.400000095
2022-08-19T09:28:22.364Z,5.800000191
2022-08-19T09:29:14.411Z,5.300000191
2022-08-19T09:30:14.882Z,4.800000191
2022-08-19T09:31:15.344Z,4.699999809
2022-08-19T09:32:26.155Z,4.599999905
2022-08-19T09:33:17.213Z,4.699999809
2022-08-19T09:34:21.341Z,5.5
2022-08-19T09:35:18.044Z,6
2022-08-19T09:36:21.820Z,4.699999809
2022-08-19T09:37:18.945Z,7.099999905
2022-08-19T09:38:19.375Z,4.599999905
2022-08-19T09:39:19.835Z,4.699999809
2022-08-19T09:40:20.315Z,5.5
2022-08-19T09:41:20.743Z,4.800000191
2022-08-19T09:42:30.586Z,5
2022-08-19T09:43:33.793Z,5.199999809
2022-08-19T09:44:22.622Z,6.5
2022-08-19T09:45:23.221Z,5.199999809
2022-08-19T09:46:23.899Z,4.699999809
2022-08-19T09:47:23.955Z,5.599999905
2022-08-19T09:48:24.354Z,5.099999905
2022-08-19T09:49:24.856Z,4.599999905
2022-08-19T09:50:25.284Z,4.800000191
2022-08-19T09:51:25.852Z,4.699999809
2022-08-19T09:52:26.113Z,8.100000381
2022-08-19T09:53:27.155Z,7.800000191
2022-08-19T09:54:27.665Z,9.600000381
2022-08-19T09:55:31.048Z,8.699999809
2022-08-19T09:56:28.583Z,6.099999905
2022-08-19T09:57:29.025Z,6
2022-08-19T09:58:29.448Z,6.800000191
2022-08-19T09:59:29.935Z,9.800000191
2022-08-19T10:00:30.347Z,4.800000191
2022-08-19T10:01:30.876Z,6.5
2022-08-19T10:02:31.380Z,5.900000095
2022-08-19T10:03:32.656Z,5.900000095
2022-08-19T10:04:33.193Z,5.300000191
2022-08-19T10:05:33.615Z,5.699999809
2022-08-19T10:06:46.120Z,5.800000191
2022-08-19T10:07:36.571Z,5.5
2022-08-19T10:08:35.752Z,5.300000191
2022-08-19T10:09:36.252Z,5.099999905
2022-08-19T10:10:36.675Z,4.900000095
2022-08-19T10:11:39.703Z,5.199999809
2022-08-19T10:12:37.548Z,7.099999905
2022-08-19T10:13:38.658Z,5.099999905
2022-08-19T10:14:39.280Z,5.5
2022-08-19T10:15:47.245Z,4.800000191
2022-08-19T10:16:39.996Z,5.099999905
2022-08-19T10:17:40.393Z,5.099999905
2022-08-19T10:18:40.834Z,4.699999809
2022-08-19T10:19:41.558Z,5.400000095
2022-08-19T10:20:42.670Z,6.099999905
2022-08-19T10:22:13.306Z,6.199999809
2022-08-19T10:23:13.709Z,5.400000095
2022-08-19T10:24:14.865Z,4.900000095
2022-08-19T10:25:15.354Z,6.099999905
2022-08-19T10:26:16.673Z,5.099999905
2022-08-19T10:27:17.096Z,5.199999809
2022-08-19T10:28:19.147Z,5.400000095
2022-08-19T10:29:32.448Z,6.900000095
2022-08-19T10:30:18.409Z,5.800000191
2022-08-19T10:31:19.524Z,4.699999809
2022-08-19T10:32:20.206Z,5.599999905
2022-08-19T10:33:38.620Z,5.599999905
2022-08-19T10:34:27.539Z,5.199999809
2022-08-19T10:35:22.445Z,4.900000095
2022-08-19T10:36:22.562Z,5.400000095
2022-08-19T10:37:23.983Z,5.400000095
2022-08-19T10:38:31.805Z,5.199999809
2022-08-19T10:39:23.849Z,5.199999809
2022-08-19T10:40:24.384Z,5.699999809
2022-08-19T10:41:24.770Z,5
2022-08-19T10:42:25.197Z,6.400000095
2022-08-19T10:43:26.161Z,6
2022-08-19T10:44:32.368Z,5.099999905
2022-08-19T10:45:28.254Z,6
2022-08-19T10:46:27.474Z,6.199999809
2022-08-19T10:47:31.640Z,9.199999809
2022-08-19T10:48:28.358Z,6.300000191
2022-08-19T10:49:28.785Z,5.699999809
2022-08-19T10:50:30.169Z,5.400000095
2022-08-19T10:51:29.657Z,5.800000191
2022-08-19T10:52:32.498Z,5.099999905
2022-08-19T10:53:31.166Z,5.699999809
2022-08-19T10:54:33.438Z,5.800000191
2022-08-19T10:55:32.038Z,5.699999809
2022-08-19T10:56:33.389Z,5.5
2022-08-19T10:57:52.401Z,6
2022-08-19T10:58:34.150Z,6.400000095
2022-08-19T10:59:36.222Z,6.400000095
2022-08-19T11:00:35.174Z,6.5
2022-08-19T11:01:35.569Z,6.900000095
2022-08-19T11:02:36.019Z,6.199999809
2022-08-19T11:03:37.166Z,5.699999809
2022-08-19T11:04:37.576Z,6.400000095
2022-08-19T11:05:40.019Z,5.699999809
2022-08-19T11:06:38.457Z,6.099999905
2022-08-19T11:07:38.868Z,5.900000095
2022-08-19T11:08:39.304Z,6
2022-08-19T11:09:39.713Z,5.800000191
2022-08-19T11:10:40.233Z,6.199999809
2022-08-19T11:11:40.650Z,5.599999905
2022-08-19T11:13:12.227Z,6.199999809
2022-08-19T11:14:13.496Z,6.5
2022-08-19T11:15:14.710Z,6
2022-08-19T11:16:15.360Z,6
2022-08-19T11:17:15.903Z,5.900000095
2022-08-19T11:18:16.386Z,6
2022-08-19T11:19:16.783Z,5.800000191
2022-08-19T11:20:18.118Z,6
2022-08-19T11:21:19.830Z,6
2022-08-19T11:22:20.417Z,5.599999905
2022-08-19T11:23:20.870Z,6.5
2022-08-19T11:24:21.430Z,6.099999905
2022-08-19T11:25:22.100Z,6.199999809
2022-08-19T11:26:22.665Z,6.400000095
2022-08-19T11:27:23.100Z,6.199999809
2022-08-19T11:28:23.530Z,6.5
2022-08-19T11:29:23.954Z,6
2022-08-19T11:30:24.402Z,6.400000095
2022-08-19T11:31:28.876Z,6.099999905
2022-08-19T11:32:26.763Z,6
2022-08-19T11:33:27.306Z,5.800000191
2022-08-19T11:34:28.595Z,6.199999809
2022-08-19T11:35:29.347Z,5.5
2022-08-19T11:36:30.047Z,5.900000095
2022-08-19T11:37:30.617Z,5.900000095
2022-08-19T11:38:31.165Z,7.599999905
2022-08-19T11:39:32.060Z,5.900000095